This is the latest recevied weather packets stored in our database for station/object ZL1CTS-13. If no packets are shown the sender has not sent any weather packets the latest 1 day(s).
| Time | Temp. | Humidity | Pressure | Rain* | Wind** | Luminosity | Snow |
|---|---|---|---|---|---|---|---|
| 1778110804 | 21.11° C | 73% | 1012.9 hPa | 0 mm | - | - | - |
| 1778109604 | 20.56° C | 74% | 1013.2 hPa | 0 mm | - | - | - |
| 1778104806 | 19.44° C | 87% | 1013.3 hPa | 0 mm | - | - | - |
| 1778101804 | 17.78° C | 92% | 1013.9 hPa | 0 mm | - | - | - |
| 1778097004 | 16.11° C | 96% | 1014.1 hPa | 0 mm | - | - | - |
| 1778096404 | 16.11° C | 96% | 1014.2 hPa | 0 mm | - | - | - |
| 1778089804 | 15.56° C | 98% | 1014.4 hPa | 0 mm | - | - | - |
| 1778089204 | 15.56° C | 98% | 1014.4 hPa | 0 mm | - | - | - |
| 1778085607 | 15.56° C | 97% | 1014.7 hPa | 0 mm | - | - | - |
| 1778083205 | 15.56° C | 98% | 1015.2 hPa | 0 mm | - | - | - |
| 1778082605 | 15.56° C | 98% | 1015.2 hPa | 0 mm | - | - | - |
| 1778076004 | 14.44° C | 99% | 1016.5 hPa | 0 mm | - | - | - |
| 1778071804 | 15.56° C | 98% | 1016.9 hPa | 0 mm | - | - | - |
| 1778070604 | 15.56° C | 98% | 1016.9 hPa | 0 mm | - | - | - |
| 1778067604 | 15.56° C | 97% | 1016.8 hPa | 0 mm | - | - | - |
| 1778066404 | 15.56° C | 97% | 1016.7 hPa | 0 mm | - | - | - |
| 1778056806 | 16.11° C | 95% | 1017.3 hPa | 0 mm | - | - | - |
| 1778055605 | 16.11° C | 95% | 1017.2 hPa | 0 mm | - | - | - |
| 1778053204 | 15.56° C | 95% | 1017.3 hPa | 0 mm | - | - | - |
| 1778051407 | 16.11° C | 93% | 1017.5 hPa | 0 mm | - | - | - |
| 1778050207 | 16.67° C | 93% | 1017.7 hPa | 0 mm | - | - | - |
| 1778047205 | 16.67° C | 89% | 1017.5 hPa | 0 mm | - | - | - |
| 1778043004 | 24.44° C | 69% | 1017.6 hPa | 0 mm | - | - | - |
| 1778039404 | 22.78° C | 70% | 1017.9 hPa | 0 mm | - | - | - |
| 1778038804 | 23.89° C | 70% | 1017.9 hPa | 0 mm | - | - | - |
* Rain latest hour (hover to see other rain measurements)
** Current wind speed in m/s (hover to see current wind gust speed)